Terminal Aerodrome Forecast
Issued by NWS

Home | Current Version | Previous Version | Text Only | Print | Product List | Glossary Off
Versions: 1 2 3 4 5 6 7 8 9 10 11 12 13 14 15 16 17
000 FTUS41 KBOX 280926 AAC TAFHYA TAF AMD KHYA 280926Z 2809/2906 24018G26KT P6SM VCTS SCT050 SCT080CB FM281030 24013G21KT P6SM BKN140 FM281600 24011KT P6SM SCT250 FM290300 24009KT P6SM SCT060 WS020/26040KT FM290500 24008KT P6SM BKN060=

USA.gov is the U.S. government's official web portal to all federal, state and local government web resources and services.